sensor_id;sensor_type;location;lat;lon;timestamp;temperature;humidity
10492;DHT22;5293;51.464;-2.566;2023-07-31T00:00:14;17.70;99.90
10492;DHT22;5293;51.464;-2.566;2023-07-31T00:02:40;17.70;99.90
10492;DHT22;5293;51.464;-2.566;2023-07-31T00:05:07;17.70;99.90
10492;DHT22;5293;51.464;-2.566;2023-07-31T00:07:33;17.80;99.90
10492;DHT22;5293;51.464;-2.566;2023-07-31T00:09:59;17.80;99.90
10492;DHT22;5293;51.464;-2.566;2023-07-31T00:12:24;17.70;99.90
10492;DHT22;5293;51.464;-2.566;2023-07-31T00:14:50;17.70;99.90
10492;DHT22;5293;51.464;-2.566;2023-07-31T00:17:17;17.70;99.90
10492;DHT22;5293;51.464;-2.566;2023-07-31T00:19:42;17.70;99.90
10492;DHT22;5293;51.464;-2.566;2023-07-31T00:22:08;17.60;99.90
10492;DHT22;5293;51.464;-2.566;2023-07-31T00:24:34;17.70;99.90
10492;DHT22;5293;51.464;-2.566;2023-07-31T00:26:59;17.70;99.90
10492;DHT22;5293;51.464;-2.566;2023-07-31T00:29:25;17.60;99.90
10492;DHT22;5293;51.464;-2.566;2023-07-31T00:31:51;17.70;99.90
10492;DHT22;5293;51.464;-2.566;2023-07-31T00:34:16;17.70;99.90
10492;DHT22;5293;51.464;-2.566;2023-07-31T00:36:42;17.70;99.90
10492;DHT22;5293;51.464;-2.566;2023-07-31T00:39:07;17.70;99.90
10492;DHT22;5293;51.464;-2.566;2023-07-31T00:41:33;17.70;99.90
10492;DHT22;5293;51.464;-2.566;2023-07-31T00:43:59;17.60;99.90
10492;DHT22;5293;51.464;-2.566;2023-07-31T00:46:24;17.60;99.90
10492;DHT22;5293;51.464;-2.566;2023-07-31T00:48:50;17.70;99.90
10492;DHT22;5293;51.464;-2.566;2023-07-31T00:51:16;17.70;99.90
10492;DHT22;5293;51.464;-2.566;2023-07-31T00:53:43;17.70;99.90
10492;DHT22;5293;51.464;-2.566;2023-07-31T00:56:09;17.70;99.90
10492;DHT22;5293;51.464;-2.566;2023-07-31T00:58:35;17.70;99.90
10492;DHT22;5293;51.464;-2.566;2023-07-31T01:01:01;17.70;99.90
10492;DHT22;5293;51.464;-2.566;2023-07-31T01:03:26;17.70;99.90
10492;DHT22;5293;51.464;-2.566;2023-07-31T01:11:17;17.70;99.90
10492;DHT22;5293;51.464;-2.566;2023-07-31T01:13:46;17.70;99.90
10492;DHT22;5293;51.464;-2.566;2023-07-31T01:16:12;17.60;99.90
10492;DHT22;5293;51.464;-2.566;2023-07-31T01:18:37;17.70;99.90
10492;DHT22;5293;51.464;-2.566;2023-07-31T01:22:11;17.60;99.90
10492;DHT22;5293;51.464;-2.566;2023-07-31T01:24:36;17.70;99.90
10492;DHT22;5293;51.464;-2.566;2023-07-31T01:27:12;17.70;99.90
10492;DHT22;5293;51.464;-2.566;2023-07-31T01:29:46;17.70;99.90
10492;DHT22;5293;51.464;-2.566;2023-07-31T01:32:14;17.70;99.90
10492;DHT22;5293;51.464;-2.566;2023-07-31T01:34:43;17.70;99.90
10492;DHT22;5293;51.464;-2.566;2023-07-31T01:37:09;17.60;99.90
10492;DHT22;5293;51.464;-2.566;2023-07-31T01:39:34;17.60;99.90
10492;DHT22;5293;51.464;-2.566;2023-07-31T01:42:00;17.60;99.90
10492;DHT22;5293;51.464;-2.566;2023-07-31T01:44:26;17.70;99.90
10492;DHT22;5293;51.464;-2.566;2023-07-31T01:46:51;17.60;99.90
10492;DHT22;5293;51.464;-2.566;2023-07-31T01:49:17;17.60;99.90
10492;DHT22;5293;51.464;-2.566;2023-07-31T01:51:43;17.50;99.90
10492;DHT22;5293;51.464;-2.566;2023-07-31T01:54:08;17.50;99.90
10492;DHT22;5293;51.464;-2.566;2023-07-31T01:56:34;17.60;99.90
10492;DHT22;5293;51.464;-2.566;2023-07-31T01:59:00;17.60;99.90
10492;DHT22;5293;51.464;-2.566;2023-07-31T02:01:25;17.60;99.90
10492;DHT22;5293;51.464;-2.566;2023-07-31T02:03:51;17.60;99.90
10492;DHT22;5293;51.464;-2.566;2023-07-31T02:06:16;17.60;99.90
10492;DHT22;5293;51.464;-2.566;2023-07-31T02:08:42;17.70;99.90
10492;DHT22;5293;51.464;-2.566;2023-07-31T02:11:08;17.80;99.90
10492;DHT22;5293;51.464;-2.566;2023-07-31T02:13:33;17.70;99.90
10492;DHT22;5293;51.464;-2.566;2023-07-31T02:15:59;17.70;99.90
10492;DHT22;5293;51.464;-2.566;2023-07-31T02:18:24;17.80;99.90
10492;DHT22;5293;51.464;-2.566;2023-07-31T02:20:51;17.70;99.90
10492;DHT22;5293;51.464;-2.566;2023-07-31T02:23:18;17.70;99.90
10492;DHT22;5293;51.464;-2.566;2023-07-31T02:25:44;17.80;99.90
10492;DHT22;5293;51.464;-2.566;2023-07-31T02:28:10;17.80;99.90
10492;DHT22;5293;51.464;-2.566;2023-07-31T02:30:35;17.80;99.90
10492;DHT22;5293;51.464;-2.566;2023-07-31T02:33:01;17.80;99.90
10492;DHT22;5293;51.464;-2.566;2023-07-31T02:35:27;17.80;99.90
10492;DHT22;5293;51.464;-2.566;2023-07-31T02:37:52;17.80;99.90
10492;DHT22;5293;51.464;-2.566;2023-07-31T02:40:18;17.80;99.90
10492;DHT22;5293;51.464;-2.566;2023-07-31T02:42:44;17.70;99.90
10492;DHT22;5293;51.464;-2.566;2023-07-31T02:45:09;17.80;99.90
10492;DHT22;5293;51.464;-2.566;2023-07-31T02:47:35;17.70;99.90
10492;DHT22;5293;51.464;-2.566;2023-07-31T02:50:04;17.70;99.90
10492;DHT22;5293;51.464;-2.566;2023-07-31T02:52:30;17.70;99.90
10492;DHT22;5293;51.464;-2.566;2023-07-31T02:54:57;17.60;99.90
10492;DHT22;5293;51.464;-2.566;2023-07-31T02:57:23;17.70;99.90
10492;DHT22;5293;51.464;-2.566;2023-07-31T02:59:48;17.70;99.90
10492;DHT22;5293;51.464;-2.566;2023-07-31T03:02:14;17.70;99.90
10492;DHT22;5293;51.464;-2.566;2023-07-31T03:04:40;17.70;99.90
10492;DHT22;5293;51.464;-2.566;2023-07-31T03:07:05;17.60;99.90
10492;DHT22;5293;51.464;-2.566;2023-07-31T03:09:31;17.60;99.90
10492;DHT22;5293;51.464;-2.566;2023-07-31T03:11:57;17.60;99.90
10492;DHT22;5293;51.464;-2.566;2023-07-31T03:14:22;17.60;99.90
10492;DHT22;5293;51.464;-2.566;2023-07-31T03:16:49;17.60;99.90
10492;DHT22;5293;51.464;-2.566;2023-07-31T03:19:14;17.60;99.90
10492;DHT22;5293;51.464;-2.566;2023-07-31T03:21:40;17.60;99.90
10492;DHT22;5293;51.464;-2.566;2023-07-31T03:24:06;17.60;99.90
10492;DHT22;5293;51.464;-2.566;2023-07-31T03:26:32;17.70;99.90
10492;DHT22;5293;51.464;-2.566;2023-07-31T03:28:58;17.70;99.90
10492;DHT22;5293;51.464;-2.566;2023-07-31T03:31:24;17.60;99.90
10492;DHT22;5293;51.464;-2.566;2023-07-31T03:33:49;17.50;99.90
10492;DHT22;5293;51.464;-2.566;2023-07-31T03:36:15;17.60;99.90
10492;DHT22;5293;51.464;-2.566;2023-07-31T03:38:40;17.50;99.90
10492;DHT22;5293;51.464;-2.566;2023-07-31T03:41:06;17.50;99.90
10492;DHT22;5293;51.464;-2.566;2023-07-31T03:43:32;17.50;99.90
10492;DHT22;5293;51.464;-2.566;2023-07-31T03:46:01;17.50;99.90
10492;DHT22;5293;51.464;-2.566;2023-07-31T03:48:26;17.30;99.90
10492;DHT22;5293;51.464;-2.566;2023-07-31T03:50:52;17.50;99.90
10492;DHT22;5293;51.464;-2.566;2023-07-31T03:53:18;17.50;99.90
10492;DHT22;5293;51.464;-2.566;2023-07-31T03:55:44;17.50;99.90
10492;DHT22;5293;51.464;-2.566;2023-07-31T03:58:09;17.40;99.90
10492;DHT22;5293;51.464;-2.566;2023-07-31T04:00:35;17.40;99.90
10492;DHT22;5293;51.464;-2.566;2023-07-31T04:03:00;17.40;99.90
10492;DHT22;5293;51.464;-2.566;2023-07-31T04:05:26;17.30;99.90
10492;DHT22;5293;51.464;-2.566;2023-07-31T04:07:52;17.30;99.90
10492;DHT22;5293;51.464;-2.566;2023-07-31T04:10:17;17.30;99.90
10492;DHT22;5293;51.464;-2.566;2023-07-31T04:12:43;17.20;99.90
10492;DHT22;5293;51.464;-2.566;2023-07-31T04:15:09;17.30;99.90
10492;DHT22;5293;51.464;-2.566;2023-07-31T04:17:35;17.20;99.90
10492;DHT22;5293;51.464;-2.566;2023-07-31T04:20:00;17.20;99.90
10492;DHT22;5293;51.464;-2.566;2023-07-31T04:22:26;17.20;99.90
10492;DHT22;5293;51.464;-2.566;2023-07-31T04:24:52;17.30;99.90
10492;DHT22;5293;51.464;-2.566;2023-07-31T04:27:18;17.20;99.90
10492;DHT22;5293;51.464;-2.566;2023-07-31T04:29:43;17.20;99.90
10492;DHT22;5293;51.464;-2.566;2023-07-31T04:32:11;17.20;99.90
10492;DHT22;5293;51.464;-2.566;2023-07-31T04:34:37;17.20;99.90
10492;DHT22;5293;51.464;-2.566;2023-07-31T04:37:03;17.20;99.90
10492;DHT22;5293;51.464;-2.566;2023-07-31T04:39:28;17.20;99.90
10492;DHT22;5293;51.464;-2.566;2023-07-31T04:41:54;17.10;99.90
10492;DHT22;5293;51.464;-2.566;2023-07-31T04:44:20;17.10;99.90
10492;DHT22;5293;51.464;-2.566;2023-07-31T04:46:45;17.10;99.90
10492;DHT22;5293;51.464;-2.566;2023-07-31T04:49:11;17.00;99.90
10492;DHT22;5293;51.464;-2.566;2023-07-31T04:51:37;17.10;99.90
10492;DHT22;5293;51.464;-2.566;2023-07-31T04:54:03;17.20;99.90
10492;DHT22;5293;51.464;-2.566;2023-07-31T04:56:28;17.10;99.90
10492;DHT22;5293;51.464;-2.566;2023-07-31T04:58:54;17.20;99.90
10492;DHT22;5293;51.464;-2.566;2023-07-31T05:01:20;17.20;99.90
10492;DHT22;5293;51.464;-2.566;2023-07-31T05:03:46;17.20;99.90
10492;DHT22;5293;51.464;-2.566;2023-07-31T05:06:11;17.30;99.90
10492;DHT22;5293;51.464;-2.566;2023-07-31T05:08:38;17.30;99.90
10492;DHT22;5293;51.464;-2.566;2023-07-31T05:11:04;17.30;99.90
10492;DHT22;5293;51.464;-2.566;2023-07-31T05:13:30;17.30;99.90
10492;DHT22;5293;51.464;-2.566;2023-07-31T05:15:56;17.30;99.90
10492;DHT22;5293;51.464;-2.566;2023-07-31T05:18:21;17.30;99.90
10492;DHT22;5293;51.464;-2.566;2023-07-31T05:20:47;17.30;99.90
10492;DHT22;5293;51.464;-2.566;2023-07-31T05:23:12;17.30;99.90
10492;DHT22;5293;51.464;-2.566;2023-07-31T05:25:38;17.30;99.90
10492;DHT22;5293;51.464;-2.566;2023-07-31T05:28:04;17.30;99.90
10492;DHT22;5293;51.464;-2.566;2023-07-31T05:30:30;17.30;99.90
10492;DHT22;5293;51.464;-2.566;2023-07-31T05:32:56;17.30;99.90
10492;DHT22;5293;51.464;-2.566;2023-07-31T05:35:22;17.40;99.90
10492;DHT22;5293;51.464;-2.566;2023-07-31T05:37:48;17.40;99.90
10492;DHT22;5293;51.464;-2.566;2023-07-31T05:40:14;17.30;99.90
10492;DHT22;5293;51.464;-2.566;2023-07-31T05:42:40;17.30;99.90
10492;DHT22;5293;51.464;-2.566;2023-07-31T05:45:08;17.40;99.90
10492;DHT22;5293;51.464;-2.566;2023-07-31T05:47:34;17.40;99.90
10492;DHT22;5293;51.464;-2.566;2023-07-31T05:50:00;17.40;99.90
10492;DHT22;5293;51.464;-2.566;2023-07-31T05:52:26;17.30;99.90
10492;DHT22;5293;51.464;-2.566;2023-07-31T05:54:51;17.30;99.90
10492;DHT22;5293;51.464;-2.566;2023-07-31T05:57:17;17.30;99.90
10492;DHT22;5293;51.464;-2.566;2023-07-31T05:59:43;17.20;99.90
10492;DHT22;5293;51.464;-2.566;2023-07-31T06:02:08;17.30;99.90
10492;DHT22;5293;51.464;-2.566;2023-07-31T06:04:34;17.30;99.90
10492;DHT22;5293;51.464;-2.566;2023-07-31T06:07:00;17.30;99.90
10492;DHT22;5293;51.464;-2.566;2023-07-31T06:09:26;17.30;99.90
10492;DHT22;5293;51.464;-2.566;2023-07-31T06:11:52;17.30;99.90
10492;DHT22;5293;51.464;-2.566;2023-07-31T06:14:18;17.40;99.90
10492;DHT22;5293;51.464;-2.566;2023-07-31T06:16:46;17.40;99.90
10492;DHT22;5293;51.464;-2.566;2023-07-31T06:19:12;17.40;99.90
10492;DHT22;5293;51.464;-2.566;2023-07-31T06:21:38;17.40;99.90
10492;DHT22;5293;51.464;-2.566;2023-07-31T06:24:07;17.40;99.90
10492;DHT22;5293;51.464;-2.566;2023-07-31T06:26:33;17.40;99.90
10492;DHT22;5293;51.464;-2.566;2023-07-31T06:28:59;17.40;99.90
10492;DHT22;5293;51.464;-2.566;2023-07-31T06:31:24;17.40;99.90
10492;DHT22;5293;51.464;-2.566;2023-07-31T06:33:51;17.40;99.90
10492;DHT22;5293;51.464;-2.566;2023-07-31T06:36:17;17.40;99.90
10492;DHT22;5293;51.464;-2.566;2023-07-31T06:38:43;17.40;99.90
10492;DHT22;5293;51.464;-2.566;2023-07-31T06:41:09;17.50;99.90
10492;DHT22;5293;51.464;-2.566;2023-07-31T06:43:36;17.50;99.90
10492;DHT22;5293;51.464;-2.566;2023-07-31T06:46:05;17.50;99.90
10492;DHT22;5293;51.464;-2.566;2023-07-31T06:48:34;17.50;99.90
10492;DHT22;5293;51.464;-2.566;2023-07-31T06:51:00;17.70;99.90
10492;DHT22;5293;51.464;-2.566;2023-07-31T06:53:26;17.80;99.90
10492;DHT22;5293;51.464;-2.566;2023-07-31T06:55:52;17.70;99.90
10492;DHT22;5293;51.464;-2.566;2023-07-31T06:58:18;17.70;99.90
10492;DHT22;5293;51.464;-2.566;2023-07-31T07:00:43;17.90;99.90
10492;DHT22;5293;51.464;-2.566;2023-07-31T07:03:09;18.00;99.90
10492;DHT22;5293;51.464;-2.566;2023-07-31T07:05:35;18.10;99.90
10492;DHT22;5293;51.464;-2.566;2023-07-31T07:08:00;18.10;99.90
10492;DHT22;5293;51.464;-2.566;2023-07-31T07:10:26;18.30;99.90
10492;DHT22;5293;51.464;-2.566;2023-07-31T07:12:52;18.40;99.90
10492;DHT22;5293;51.464;-2.566;2023-07-31T07:15:18;18.50;99.90
10492;DHT22;5293;51.464;-2.566;2023-07-31T07:17:44;18.60;99.90
10492;DHT22;5293;51.464;-2.566;2023-07-31T07:20:10;18.40;99.90
10492;DHT22;5293;51.464;-2.566;2023-07-31T07:22:35;18.30;99.90
10492;DHT22;5293;51.464;-2.566;2023-07-31T07:25:01;18.30;99.90
10492;DHT22;5293;51.464;-2.566;2023-07-31T07:27:27;18.30;99.90
10492;DHT22;5293;51.464;-2.566;2023-07-31T07:29:53;18.30;99.90
10492;DHT22;5293;51.464;-2.566;2023-07-31T07:32:19;18.30;99.90
10492;DHT22;5293;51.464;-2.566;2023-07-31T07:34:44;18.20;99.90
10492;DHT22;5293;51.464;-2.566;2023-07-31T07:37:11;18.30;99.90
10492;DHT22;5293;51.464;-2.566;2023-07-31T07:39:36;18.30;99.90
10492;DHT22;5293;51.464;-2.566;2023-07-31T07:42:02;18.40;99.90
10492;DHT22;5293;51.464;-2.566;2023-07-31T07:44:28;18.50;99.90
10492;DHT22;5293;51.464;-2.566;2023-07-31T07:46:54;18.50;99.90
10492;DHT22;5293;51.464;-2.566;2023-07-31T07:49:20;18.50;99.90
10492;DHT22;5293;51.464;-2.566;2023-07-31T07:51:48;18.50;99.90
10492;DHT22;5293;51.464;-2.566;2023-07-31T07:54:14;18.50;99.90
10492;DHT22;5293;51.464;-2.566;2023-07-31T07:56:40;18.50;99.90
10492;DHT22;5293;51.464;-2.566;2023-07-31T07:59:05;18.50;99.90
10492;DHT22;5293;51.464;-2.566;2023-07-31T08:01:31;18.30;99.90
10492;DHT22;5293;51.464;-2.566;2023-07-31T08:03:57;18.30;99.90
10492;DHT22;5293;51.464;-2.566;2023-07-31T08:06:23;18.20;99.90
10492;DHT22;5293;51.464;-2.566;2023-07-31T08:08:49;18.30;99.90
10492;DHT22;5293;51.464;-2.566;2023-07-31T08:11:15;18.30;99.90
10492;DHT22;5293;51.464;-2.566;2023-07-31T08:13:41;18.40;99.90
10492;DHT22;5293;51.464;-2.566;2023-07-31T08:16:06;18.20;99.90
10492;DHT22;5293;51.464;-2.566;2023-07-31T08:18:32;18.30;99.90
10492;DHT22;5293;51.464;-2.566;2023-07-31T08:20:58;18.20;99.90
10492;DHT22;5293;51.464;-2.566;2023-07-31T08:23:24;18.20;99.90
10492;DHT22;5293;51.464;-2.566;2023-07-31T08:25:50;18.30;99.90
10492;DHT22;5293;51.464;-2.566;2023-07-31T08:28:16;18.30;99.90
10492;DHT22;5293;51.464;-2.566;2023-07-31T08:30:42;18.30;99.90
10492;DHT22;5293;51.464;-2.566;2023-07-31T08:33:08;18.40;99.90
10492;DHT22;5293;51.464;-2.566;2023-07-31T08:35:33;18.40;99.90
10492;DHT22;5293;51.464;-2.566;2023-07-31T08:37:59;18.50;99.90
10492;DHT22;5293;51.464;-2.566;2023-07-31T08:40:25;18.50;99.90
10492;DHT22;5293;51.464;-2.566;2023-07-31T08:42:53;18.50;99.90
10492;DHT22;5293;51.464;-2.566;2023-07-31T08:45:20;18.50;99.90
10492;DHT22;5293;51.464;-2.566;2023-07-31T08:47:51;18.50;99.90
10492;DHT22;5293;51.464;-2.566;2023-07-31T08:50:19;18.40;99.90
10492;DHT22;5293;51.464;-2.566;2023-07-31T08:52:47;18.40;99.90
10492;DHT22;5293;51.464;-2.566;2023-07-31T08:55:13;18.50;99.90
10492;DHT22;5293;51.464;-2.566;2023-07-31T08:57:39;18.40;99.90
10492;DHT22;5293;51.464;-2.566;2023-07-31T09:00:06;18.30;99.90
10492;DHT22;5293;51.464;-2.566;2023-07-31T09:02:52;18.30;99.90
10492;DHT22;5293;51.464;-2.566;2023-07-31T09:05:20;18.40;99.90
10492;DHT22;5293;51.464;-2.566;2023-07-31T09:07:47;18.50;99.90
10492;DHT22;5293;51.464;-2.566;2023-07-31T09:10:15;18.50;99.90
10492;DHT22;5293;51.464;-2.566;2023-07-31T09:12:40;18.50;99.90
10492;DHT22;5293;51.464;-2.566;2023-07-31T09:15:07;18.60;99.90
10492;DHT22;5293;51.464;-2.566;2023-07-31T09:17:35;18.60;99.90
10492;DHT22;5293;51.464;-2.566;2023-07-31T09:20:19;18.50;99.90
10492;DHT22;5293;51.464;-2.566;2023-07-31T09:22:47;18.40;99.90
10492;DHT22;5293;51.464;-2.566;2023-07-31T09:25:21;18.40;99.90
10492;DHT22;5293;51.464;-2.566;2023-07-31T09:30:17;18.20;99.90
10492;DHT22;5293;51.464;-2.566;2023-07-31T09:32:47;18.10;99.90
10492;DHT22;5293;51.464;-2.566;2023-07-31T09:35:21;18.10;99.90
10492;DHT22;5293;51.464;-2.566;2023-07-31T09:37:54;18.20;99.90
10492;DHT22;5293;51.464;-2.566;2023-07-31T09:40:27;18.40;99.90
10492;DHT22;5293;51.464;-2.566;2023-07-31T09:42:56;18.50;99.90
10492;DHT22;5293;51.464;-2.566;2023-07-31T09:45:22;18.50;99.90
10492;DHT22;5293;51.464;-2.566;2023-07-31T09:47:48;18.70;99.90
10492;DHT22;5293;51.464;-2.566;2023-07-31T09:50:14;18.80;99.90
10492;DHT22;5293;51.464;-2.566;2023-07-31T09:52:41;18.80;99.90
10492;DHT22;5293;51.464;-2.566;2023-07-31T09:55:08;18.80;99.90
10492;DHT22;5293;51.464;-2.566;2023-07-31T09:57:34;19.00;99.90
10492;DHT22;5293;51.464;-2.566;2023-07-31T10:00:02;19.10;99.90
10492;DHT22;5293;51.464;-2.566;2023-07-31T10:02:29;19.20;99.90
10492;DHT22;5293;51.464;-2.566;2023-07-31T10:04:57;19.30;99.90
10492;DHT22;5293;51.464;-2.566;2023-07-31T10:07:26;19.30;99.90
10492;DHT22;5293;51.464;-2.566;2023-07-31T10:09:55;19.20;99.90
10492;DHT22;5293;51.464;-2.566;2023-07-31T10:12:24;19.10;99.90
10492;DHT22;5293;51.464;-2.566;2023-07-31T10:14:52;18.90;99.90
10492;DHT22;5293;51.464;-2.566;2023-07-31T10:17:18;18.80;99.90
10492;DHT22;5293;51.464;-2.566;2023-07-31T10:19:45;18.70;99.90
10492;DHT22;5293;51.464;-2.566;2023-07-31T10:22:11;18.70;99.90
10492;DHT22;5293;51.464;-2.566;2023-07-31T10:24:37;18.80;99.90
10492;DHT22;5293;51.464;-2.566;2023-07-31T10:27:04;18.80;99.90
10492;DHT22;5293;51.464;-2.566;2023-07-31T10:29:30;18.70;99.90
10492;DHT22;5293;51.464;-2.566;2023-07-31T10:31:57;18.60;99.90
10492;DHT22;5293;51.464;-2.566;2023-07-31T10:34:24;18.50;99.90
10492;DHT22;5293;51.464;-2.566;2023-07-31T10:36:49;18.60;99.90
10492;DHT22;5293;51.464;-2.566;2023-07-31T10:39:35;18.80;99.90
10492;DHT22;5293;51.464;-2.566;2023-07-31T10:42:12;18.80;99.90
10492;DHT22;5293;51.464;-2.566;2023-07-31T10:44:43;18.80;99.90
10492;DHT22;5293;51.464;-2.566;2023-07-31T10:47:09;18.70;99.90
10492;DHT22;5293;51.464;-2.566;2023-07-31T10:49:34;18.80;99.90
10492;DHT22;5293;51.464;-2.566;2023-07-31T10:52:03;18.80;99.90
10492;DHT22;5293;51.464;-2.566;2023-07-31T10:54:29;18.60;99.90
10492;DHT22;5293;51.464;-2.566;2023-07-31T10:56:56;18.50;99.90
10492;DHT22;5293;51.464;-2.566;2023-07-31T10:59:27;18.40;99.90
10492;DHT22;5293;51.464;-2.566;2023-07-31T11:01:55;18.40;99.90
10492;DHT22;5293;51.464;-2.566;2023-07-31T11:04:25;18.40;99.90
10492;DHT22;5293;51.464;-2.566;2023-07-31T11:07:01;18.50;99.90
10492;DHT22;5293;51.464;-2.566;2023-07-31T11:09:32;18.40;99.90
10492;DHT22;5293;51.464;-2.566;2023-07-31T11:11:59;18.40;99.90
10492;DHT22;5293;51.464;-2.566;2023-07-31T11:14:25;18.40;99.90
10492;DHT22;5293;51.464;-2.566;2023-07-31T11:16:51;18.40;99.90
10492;DHT22;5293;51.464;-2.566;2023-07-31T11:19:25;18.30;99.90
10492;DHT22;5293;51.464;-2.566;2023-07-31T11:21:54;18.40;99.90
10492;DHT22;5293;51.464;-2.566;2023-07-31T11:24:20;18.30;99.90
10492;DHT22;5293;51.464;-2.566;2023-07-31T11:26:53;18.40;99.90
10492;DHT22;5293;51.464;-2.566;2023-07-31T11:29:20;18.30;99.90
10492;DHT22;5293;51.464;-2.566;2023-07-31T11:31:46;18.30;99.90
10492;DHT22;5293;51.464;-2.566;2023-07-31T11:34:13;18.20;99.90
10492;DHT22;5293;51.464;-2.566;2023-07-31T11:36:38;18.20;99.90
10492;DHT22;5293;51.464;-2.566;2023-07-31T11:39:05;18.00;99.90
10492;DHT22;5293;51.464;-2.566;2023-07-31T11:41:32;18.10;99.90
10492;DHT22;5293;51.464;-2.566;2023-07-31T11:44:00;17.90;99.90
10492;DHT22;5293;51.464;-2.566;2023-07-31T11:46:26;17.90;99.90
10492;DHT22;5293;51.464;-2.566;2023-07-31T11:48:52;17.90;99.90
10492;DHT22;5293;51.464;-2.566;2023-07-31T11:51:24;17.90;99.90
10492;DHT22;5293;51.464;-2.566;2023-07-31T11:53:52;17.90;99.90
10492;DHT22;5293;51.464;-2.566;2023-07-31T11:56:20;17.80;99.90
10492;DHT22;5293;51.464;-2.566;2023-07-31T11:58:48;17.70;99.90
10492;DHT22;5293;51.464;-2.566;2023-07-31T12:01:15;17.60;99.90
10492;DHT22;5293;51.464;-2.566;2023-07-31T12:03:44;17.70;99.90
10492;DHT22;5293;51.464;-2.566;2023-07-31T12:06:10;17.80;99.90
10492;DHT22;5293;51.464;-2.566;2023-07-31T12:08:36;17.80;99.90
10492;DHT22;5293;51.464;-2.566;2023-07-31T12:11:07;17.80;99.90
10492;DHT22;5293;51.464;-2.566;2023-07-31T12:13:35;17.90;99.90
10492;DHT22;5293;51.464;-2.566;2023-07-31T12:16:02;17.80;99.90
10492;DHT22;5293;51.464;-2.566;2023-07-31T12:18:29;17.70;99.90
10492;DHT22;5293;51.464;-2.566;2023-07-31T12:23:23;17.70;99.90
10492;DHT22;5293;51.464;-2.566;2023-07-31T12:31:09;17.70;99.90
10492;DHT22;5293;51.464;-2.566;2023-07-31T12:33:38;17.70;99.90
10492;DHT22;5293;51.464;-2.566;2023-07-31T12:36:08;17.60;99.90
10492;DHT22;5293;51.464;-2.566;2023-07-31T12:38:34;17.50;99.90
10492;DHT22;5293;51.464;-2.566;2023-07-31T12:41:00;17.50;99.90
10492;DHT22;5293;51.464;-2.566;2023-07-31T12:43:26;17.50;99.90
10492;DHT22;5293;51.464;-2.566;2023-07-31T12:45:53;17.40;99.90
10492;DHT22;5293;51.464;-2.566;2023-07-31T12:48:19;17.40;99.90
10492;DHT22;5293;51.464;-2.566;2023-07-31T12:50:45;17.30;99.90
10492;DHT22;5293;51.464;-2.566;2023-07-31T12:53:10;17.20;99.90
10492;DHT22;5293;51.464;-2.566;2023-07-31T12:55:36;17.20;99.90
10492;DHT22;5293;51.464;-2.566;2023-07-31T12:58:02;17.10;99.90
10492;DHT22;5293;51.464;-2.566;2023-07-31T13:00:28;17.10;99.90
10492;DHT22;5293;51.464;-2.566;2023-07-31T13:02:54;17.10;99.90
10492;DHT22;5293;51.464;-2.566;2023-07-31T13:05:20;17.10;99.90
10492;DHT22;5293;51.464;-2.566;2023-07-31T13:07:46;17.10;99.90
10492;DHT22;5293;51.464;-2.566;2023-07-31T13:10:12;17.20;99.90
10492;DHT22;5293;51.464;-2.566;2023-07-31T13:12:38;17.40;99.90
10492;DHT22;5293;51.464;-2.566;2023-07-31T13:15:05;17.30;99.90
10492;DHT22;5293;51.464;-2.566;2023-07-31T13:17:31;17.40;99.90
10492;DHT22;5293;51.464;-2.566;2023-07-31T13:19:57;17.60;99.90
10492;DHT22;5293;51.464;-2.566;2023-07-31T13:22:23;17.70;99.90
10492;DHT22;5293;51.464;-2.566;2023-07-31T13:24:49;17.80;99.90
10492;DHT22;5293;51.464;-2.566;2023-07-31T13:27:15;17.90;99.90
10492;DHT22;5293;51.464;-2.566;2023-07-31T13:29:44;17.90;99.90
10492;DHT22;5293;51.464;-2.566;2023-07-31T13:32:10;18.00;99.90
10492;DHT22;5293;51.464;-2.566;2023-07-31T13:34:35;17.90;99.90
10492;DHT22;5293;51.464;-2.566;2023-07-31T13:37:01;18.00;99.90
10492;DHT22;5293;51.464;-2.566;2023-07-31T13:39:27;18.20;99.90
10492;DHT22;5293;51.464;-2.566;2023-07-31T13:41:52;18.40;99.90
10492;DHT22;5293;51.464;-2.566;2023-07-31T13:44:18;18.40;99.90
10492;DHT22;5293;51.464;-2.566;2023-07-31T13:46:44;18.50;99.90
10492;DHT22;5293;51.464;-2.566;2023-07-31T13:49:09;18.50;99.90
10492;DHT22;5293;51.464;-2.566;2023-07-31T13:51:35;18.30;99.90
10492;DHT22;5293;51.464;-2.566;2023-07-31T13:54:01;18.50;99.90
10492;DHT22;5293;51.464;-2.566;2023-07-31T13:56:27;18.60;99.90
10492;DHT22;5293;51.464;-2.566;2023-07-31T13:58:52;18.70;99.90
10492;DHT22;5293;51.464;-2.566;2023-07-31T14:01:18;19.00;99.90
10492;DHT22;5293;51.464;-2.566;2023-07-31T14:03:44;19.10;99.90
10492;DHT22;5293;51.464;-2.566;2023-07-31T14:06:09;19.20;99.90
10492;DHT22;5293;51.464;-2.566;2023-07-31T14:08:35;19.40;99.90
10492;DHT22;5293;51.464;-2.566;2023-07-31T14:11:01;19.50;99.90
10492;DHT22;5293;51.464;-2.566;2023-07-31T14:13:26;19.70;99.90
10492;DHT22;5293;51.464;-2.566;2023-07-31T14:15:52;19.80;99.90
10492;DHT22;5293;51.464;-2.566;2023-07-31T14:18:18;19.80;99.90
10492;DHT22;5293;51.464;-2.566;2023-07-31T14:20:44;19.60;99.90
10492;DHT22;5293;51.464;-2.566;2023-07-31T14:23:10;19.40;99.90
10492;DHT22;5293;51.464;-2.566;2023-07-31T14:25:35;19.20;99.90
10492;DHT22;5293;51.464;-2.566;2023-07-31T14:28:01;19.20;99.90
10492;DHT22;5293;51.464;-2.566;2023-07-31T14:30:27;19.10;99.90
10492;DHT22;5293;51.464;-2.566;2023-07-31T14:32:52;19.00;99.90
10492;DHT22;5293;51.464;-2.566;2023-07-31T14:35:18;18.90;99.90
10492;DHT22;5293;51.464;-2.566;2023-07-31T14:37:44;19.10;99.90
10492;DHT22;5293;51.464;-2.566;2023-07-31T14:40:12;19.20;99.90
10492;DHT22;5293;51.464;-2.566;2023-07-31T14:42:38;19.50;99.90
10492;DHT22;5293;51.464;-2.566;2023-07-31T14:45:05;19.50;99.90
10492;DHT22;5293;51.464;-2.566;2023-07-31T14:47:31;19.40;99.90
10492;DHT22;5293;51.464;-2.566;2023-07-31T14:49:58;19.50;99.90
10492;DHT22;5293;51.464;-2.566;2023-07-31T14:52:24;19.30;99.90
10492;DHT22;5293;51.464;-2.566;2023-07-31T14:54:50;19.50;99.90
10492;DHT22;5293;51.464;-2.566;2023-07-31T14:57:16;19.50;99.90
10492;DHT22;5293;51.464;-2.566;2023-07-31T14:59:41;19.60;99.90
10492;DHT22;5293;51.464;-2.566;2023-07-31T15:02:10;19.50;99.90
10492;DHT22;5293;51.464;-2.566;2023-07-31T15:04:36;19.60;99.90
10492;DHT22;5293;51.464;-2.566;2023-07-31T15:07:02;19.70;99.90
10492;DHT22;5293;51.464;-2.566;2023-07-31T15:09:28;19.80;99.90
10492;DHT22;5293;51.464;-2.566;2023-07-31T15:11:55;19.80;99.90
10492;DHT22;5293;51.464;-2.566;2023-07-31T15:14:21;19.80;99.90
10492;DHT22;5293;51.464;-2.566;2023-07-31T15:16:47;19.80;99.90
10492;DHT22;5293;51.464;-2.566;2023-07-31T15:19:13;19.70;99.90
10492;DHT22;5293;51.464;-2.566;2023-07-31T15:21:39;19.70;99.90
10492;DHT22;5293;51.464;-2.566;2023-07-31T15:24:05;19.60;99.90
10492;DHT22;5293;51.464;-2.566;2023-07-31T15:26:30;19.60;99.90
10492;DHT22;5293;51.464;-2.566;2023-07-31T15:29:06;19.70;99.90
10492;DHT22;5293;51.464;-2.566;2023-07-31T15:31:39;19.70;99.90
10492;DHT22;5293;51.464;-2.566;2023-07-31T15:34:05;19.90;99.90
10492;DHT22;5293;51.464;-2.566;2023-07-31T15:36:31;19.90;99.90
10492;DHT22;5293;51.464;-2.566;2023-07-31T15:38:57;19.80;99.90
10492;DHT22;5293;51.464;-2.566;2023-07-31T15:41:23;19.70;99.90